createdAt,value
2022-10-27T00:01:22.755Z,101312.34
2022-10-27T00:06:25.150Z,101335.50
2022-10-27T00:11:27.463Z,101330.50
2022-10-27T00:16:30.121Z,101354.41
2022-10-27T00:21:32.390Z,101351.84
2022-10-27T00:26:34.675Z,101352.53
2022-10-27T00:31:37.022Z,101358.44
2022-10-27T00:36:39.389Z,101350.91
2022-10-27T00:41:42.653Z,101356.59
2022-10-27T00:46:46.828Z,101351.81
2022-10-27T00:51:51.655Z,101360.63
2022-10-27T00:56:54.719Z,101363.06
2022-10-27T01:07:04.325Z,101351.03
2022-10-27T01:12:06.625Z,101344.09
2022-10-27T01:17:34.467Z,101349.78
2022-10-27T01:22:45.172Z,101348.25
2022-10-27T01:28:26.367Z,101349.44
2022-10-27T01:33:53.979Z,101344.19
2022-10-27T01:39:18.191Z,101345.41
2022-10-27T01:44:28.332Z,101346.81
2022-10-27T01:49:37.478Z,101343.25
2022-10-27T01:54:42.150Z,101334.50
2022-10-27T01:59:53.906Z,101337.16
2022-10-27T02:05:00.582Z,101339.72
2022-10-27T02:10:10.993Z,101341.53
2022-10-27T02:15:30.799Z,101338.16
2022-10-27T02:20:42.061Z,101335.94
2022-10-27T02:26:10.333Z,101340.81
2022-10-27T02:31:14.268Z,101336.72
2022-10-27T02:36:16.835Z,101336.88
2022-10-27T02:41:19.159Z,101324.50
2022-10-27T02:46:21.456Z,101337.69
2022-10-27T02:51:23.730Z,101333.47
2022-10-27T02:56:26.022Z,101335.41
2022-10-27T03:01:28.597Z,101343.44
2022-10-27T03:06:30.902Z,101342.56
2022-10-27T03:11:33.269Z,101350.75
2022-10-27T03:16:35.518Z,101347.56
2022-10-27T03:21:37.795Z,101356.31
2022-10-27T03:26:40.785Z,101347.94
2022-10-27T03:31:43.127Z,101349.75
2022-10-27T03:36:45.478Z,101344.53
2022-10-27T03:41:47.750Z,101347.41
2022-10-27T03:46:50.095Z,101356.03
2022-10-27T03:51:52.354Z,101361.81
2022-10-27T03:56:54.633Z,101367.03
2022-10-27T04:01:57.038Z,101364.19
2022-10-27T04:06:59.421Z,101361.59
2022-10-27T04:12:01.683Z,101367.84
2022-10-27T04:17:04.557Z,101366.06
2022-10-27T04:22:06.900Z,101360.88
2022-10-27T04:27:09.723Z,101360.03
2022-10-27T04:32:12.125Z,101368.41
2022-10-27T04:37:14.416Z,101358.44
2022-10-27T04:42:16.721Z,101359.09
2022-10-27T04:47:19.155Z,101361.53
2022-10-27T04:52:21.514Z,101375.81
2022-10-27T04:57:23.890Z,101388.63
2022-10-27T05:02:26.307Z,101390.47
2022-10-27T05:07:28.681Z,101408.34
2022-10-27T05:12:31.019Z,101414.06
2022-10-27T05:17:36.510Z,101415.19
2022-10-27T05:22:39.599Z,101409.03
2022-10-27T05:27:42.314Z,101410.66
2022-10-27T05:32:46.532Z,101423.50
2022-10-27T05:37:50.108Z,101432.50
2022-10-27T05:42:55.103Z,101435.31
2022-10-27T05:47:59.737Z,101456.06
2022-10-27T05:53:02.621Z,101455.28
2022-10-27T05:58:06.655Z,101444.88
2022-10-27T06:03:17.341Z,101454.63
2022-10-27T06:08:19.877Z,101461.75
2022-10-27T06:13:22.401Z,101473.44
2022-10-27T06:18:24.748Z,101472.97
2022-10-27T06:23:27.096Z,101469.50
2022-10-27T06:28:29.455Z,101467.75
2022-10-27T06:33:31.887Z,101470.38
2022-10-27T06:38:34.473Z,101474.84
2022-10-27T06:43:37.055Z,101485.13
2022-10-27T06:48:39.394Z,101473.94
2022-10-27T06:53:41.937Z,101476.53
2022-10-27T06:58:44.271Z,101485.19
2022-10-27T07:03:46.774Z,101484.78
2022-10-27T07:08:50.167Z,101474.59
2022-10-27T07:13:52.602Z,101471.31
2022-10-27T07:18:54.910Z,101477.19
2022-10-27T07:23:57.275Z,101484.63
2022-10-27T07:28:59.593Z,101496.28
2022-10-27T07:39:09.127Z,101504.66
2022-10-27T07:44:11.532Z,101517.75
2022-10-27T07:49:13.876Z,101526.22
2022-10-27T07:54:16.867Z,101518.81
2022-10-27T07:59:19.353Z,101536.84
2022-10-27T08:04:21.736Z,101529.75
2022-10-27T08:09:24.066Z,101534.97
2022-10-27T08:14:28.257Z,101536.38
2022-10-27T08:19:30.630Z,101538.69
2022-10-27T08:24:33.000Z,101539.84
2022-10-27T08:29:35.274Z,101530.66
2022-10-27T08:34:37.619Z,101541.84
2022-10-27T08:39:40.002Z,101549.81
2022-10-27T08:44:59.385Z,101547.19
2022-10-27T08:50:11.168Z,101546.41
2022-10-27T08:55:13.442Z,101558.25
2022-10-27T09:00:16.009Z,101578.28
2022-10-27T09:05:18.494Z,101571.63
2022-10-27T09:10:42.868Z,101574.06
2022-10-27T09:15:45.719Z,101573.66
2022-10-27T09:20:55.031Z,101576.81
2022-10-27T09:25:59.634Z,101585.19
2022-10-27T09:31:03.153Z,101562.19
2022-10-27T09:36:15.314Z,101567.69
2022-10-27T09:41:17.891Z,101568.81
2022-10-27T09:46:25.528Z,101573.25
2022-10-27T09:51:28.512Z,101565.25
2022-10-27T09:56:32.827Z,101574.19
2022-10-27T10:01:44.064Z,101580.00
2022-10-27T10:06:59.843Z,101571.50
2022-10-27T10:12:24.101Z,101577.06
2022-10-27T10:17:28.088Z,101579.56
2022-10-27T10:22:37.963Z,101568.88
2022-10-27T10:27:47.161Z,101571.00
2022-10-27T10:32:52.054Z,101568.53
2022-10-27T10:37:54.890Z,101564.34
2022-10-27T10:43:05.898Z,101570.38
2022-10-27T10:48:29.819Z,101578.38
2022-10-27T10:53:34.683Z,101580.53
2022-10-27T10:58:37.380Z,101580.03
2022-10-27T11:03:45.415Z,101581.38
2022-10-27T11:09:00.010Z,101580.06
2022-10-27T11:14:11.376Z,101583.31
2022-10-27T11:19:17.471Z,101587.25
2022-10-27T11:24:23.955Z,101580.28
2022-10-27T11:29:54.430Z,101582.69
2022-10-27T11:35:04.034Z,101574.09
2022-10-27T11:40:11.844Z,101564.44
2022-10-27T11:45:21.100Z,101576.66
2022-10-27T11:50:48.614Z,101565.91
2022-10-27T11:56:29.120Z,101571.34
2022-10-27T12:01:50.066Z,101572.00
2022-10-27T12:07:11.270Z,101569.56
2022-10-27T12:12:20.029Z,101576.63
2022-10-27T12:17:31.817Z,101570.94
2022-10-27T12:22:37.507Z,101593.88
2022-10-27T12:27:48.020Z,101583.78
2022-10-27T12:33:11.799Z,101590.13
2022-10-27T12:38:28.341Z,101589.13
2022-10-27T12:43:45.713Z,101590.53
2022-10-27T12:49:11.070Z,101582.84
2022-10-27T12:54:19.866Z,101580.44
2022-10-27T12:59:51.715Z,101563.19
2022-10-27T13:05:14.040Z,101586.91
2022-10-27T13:10:22.981Z,101582.25
2022-10-27T13:15:54.144Z,101583.41
2022-10-27T13:21:07.458Z,101582.19
2022-10-27T13:26:09.722Z,101583.78
2022-10-27T13:31:23.910Z,101572.69
2022-10-27T13:36:27.968Z,101567.81
2022-10-27T13:41:51.837Z,101577.63
2022-10-27T13:47:02.974Z,101580.06
2022-10-27T13:52:26.186Z,101578.81
2022-10-27T13:57:51.374Z,101579.00
2022-10-27T14:03:12.424Z,101573.88
2022-10-27T14:08:26.392Z,101579.91
2022-10-27T14:13:31.431Z,101575.16
2022-10-27T14:18:36.793Z,101581.25
2022-10-27T14:23:39.253Z,101584.53
2022-10-27T14:28:47.705Z,101576.66
2022-10-27T14:33:51.106Z,101585.28
2022-10-27T14:39:06.771Z,101588.59
2022-10-27T14:44:16.657Z,101585.88
2022-10-27T14:49:34.902Z,101601.25
2022-10-27T14:54:38.141Z,101601.75
2022-10-27T14:59:45.862Z,101595.19
2022-10-27T15:04:48.217Z,101587.47
2022-10-27T15:09:53.158Z,101590.75
2022-10-27T15:14:56.394Z,101599.94
2022-10-27T15:20:01.588Z,101580.16
2022-10-27T15:25:05.088Z,101585.59
2022-10-27T15:30:08.630Z,101596.19
2022-10-27T15:35:32.553Z,101590.97
2022-10-27T15:40:41.290Z,101586.78
2022-10-27T15:45:44.887Z,101596.31
2022-10-27T15:51:04.711Z,101581.50
2022-10-27T15:56:33.084Z,101584.56
2022-10-27T16:01:35.716Z,101583.09
2022-10-27T16:06:38.176Z,101587.34
2022-10-27T16:11:42.301Z,101589.22
2022-10-27T16:16:46.589Z,101588.88
2022-10-27T16:21:48.904Z,101586.66
2022-10-27T16:26:53.085Z,101590.47
2022-10-27T16:31:55.715Z,101588.75
2022-10-27T16:36:58.059Z,101601.50
2022-10-27T16:42:00.471Z,101595.13
2022-10-27T16:47:07.297Z,101595.63
2022-10-27T16:52:10.234Z,101600.28
2022-10-27T16:57:12.616Z,101590.81
2022-10-27T17:02:14.980Z,101593.75
2022-10-27T17:07:17.835Z,101581.81
2022-10-27T17:12:20.296Z,101598.47
2022-10-27T17:17:23.394Z,101608.66
2022-10-27T17:22:25.697Z,101604.13
2022-10-27T17:27:28.024Z,101593.31
2022-10-27T17:32:30.411Z,101551.66
2022-10-27T17:37:32.780Z,101601.56
2022-10-27T17:42:35.079Z,101605.03
2022-10-27T17:47:37.397Z,101600.84
2022-10-27T17:52:39.981Z,101608.16
2022-10-27T17:57:42.362Z,101601.66
2022-10-27T18:02:44.767Z,101602.31
2022-10-27T18:07:47.090Z,101588.72
2022-10-27T18:12:49.837Z,101586.50
2022-10-27T18:17:52.393Z,101596.38
2022-10-27T18:22:55.093Z,101585.50
2022-10-27T18:27:57.683Z,101595.09
2022-10-27T18:33:00.275Z,101589.59
2022-10-27T18:38:02.589Z,101582.16
2022-10-27T18:43:05.168Z,101584.06
2022-10-27T18:48:07.489Z,101589.75
2022-10-27T18:53:11.623Z,101585.63
2022-10-27T18:58:13.894Z,101588.34
2022-10-27T19:03:17.615Z,101583.44
2022-10-27T19:08:21.246Z,101586.34
2022-10-27T19:13:23.787Z,101593.78
2022-10-27T19:18:26.114Z,101592.84
2022-10-27T19:23:28.999Z,101601.22
2022-10-27T19:28:35.558Z,101614.13
2022-10-27T19:33:39.190Z,101594.28
2022-10-27T19:38:41.985Z,101613.63
2022-10-27T19:43:47.295Z,101616.53
2022-10-27T19:48:57.217Z,101616.53
2022-10-27T19:53:59.584Z,101618.50
2022-10-27T19:59:03.740Z,101610.19
2022-10-27T20:04:11.259Z,101624.72
2022-10-27T20:09:16.557Z,101619.31
2022-10-27T20:14:19.303Z,101626.50
2022-10-27T20:19:22.850Z,101625.84
2022-10-27T20:24:25.273Z,101613.63
2022-10-27T20:29:30.629Z,101611.06
2022-10-27T20:34:39.385Z,101610.53
2022-10-27T20:39:42.121Z,101600.34
2022-10-27T20:44:44.517Z,101606.97
2022-10-27T20:49:46.809Z,101619.63
2022-10-27T20:54:49.129Z,101614.66
2022-10-27T20:59:51.501Z,101622.34
2022-10-27T21:04:53.868Z,101614.81
2022-10-27T21:09:56.194Z,101614.19
2022-10-27T21:14:58.632Z,101610.97
2022-10-27T21:20:00.919Z,101598.44
2022-10-27T21:25:03.260Z,101610.66
2022-10-27T21:30:05.983Z,101605.28
2022-10-27T21:35:08.681Z,101594.44
2022-10-27T21:40:12.193Z,101594.09
2022-10-27T21:45:14.791Z,101599.63
2022-10-27T21:50:17.133Z,101600.81
2022-10-27T21:55:19.599Z,101583.91
2022-10-27T22:00:21.947Z,101597.31
2022-10-27T22:05:24.302Z,101569.38
2022-10-27T22:10:26.625Z,101585.16
2022-10-27T22:15:29.086Z,101579.41
2022-10-27T22:20:31.332Z,101577.25
2022-10-27T22:25:38.265Z,101567.16
2022-10-27T22:30:40.827Z,101563.88
2022-10-27T22:35:43.142Z,101555.75
2022-10-27T22:40:45.592Z,101555.38
2022-10-27T22:45:55.003Z,101565.53
2022-10-27T22:51:08.928Z,101559.94
2022-10-27T22:56:22.757Z,101560.38
2022-10-27T23:01:28.120Z,101559.13
2022-10-27T23:06:33.580Z,101565.56
2022-10-27T23:11:36.791Z,101554.19
2022-10-27T23:16:39.205Z,101550.88
2022-10-27T23:21:41.552Z,101539.94
2022-10-27T23:26:43.891Z,101544.53
2022-10-27T23:31:46.226Z,101548.78
2022-10-27T23:36:48.621Z,101537.56
2022-10-27T23:41:50.963Z,101521.72
2022-10-27T23:46:53.250Z,101536.19
2022-10-27T23:51:55.546Z,101529.09
2022-10-27T23:56:57.885Z,101533.22
